createdAt,value
2018-02-15T00:01:10.679Z,49.37
2018-02-15T00:03:39.019Z,49.75
2018-02-15T00:06:06.541Z,49.90
2018-02-15T00:08:34.046Z,50.05
2018-02-15T00:11:01.543Z,50.08
2018-02-15T00:13:29.053Z,49.96
2018-02-15T00:15:56.563Z,49.86
2018-02-15T00:18:24.083Z,49.82
2018-02-15T00:20:51.601Z,49.79
2018-02-15T00:23:19.877Z,49.68
2018-02-15T00:25:47.395Z,49.90
2018-02-15T00:28:14.936Z,50.22
2018-02-15T00:30:42.452Z,50.24
2018-02-15T00:33:09.950Z,50.45
2018-02-15T00:35:37.471Z,50.48
2018-02-15T00:38:04.952Z,50.69
2018-02-15T00:40:32.525Z,50.56
2018-02-15T00:43:00.107Z,50.45
2018-02-15T00:45:28.475Z,50.68
2018-02-15T00:47:56.072Z,50.57
2018-02-15T00:50:23.693Z,50.75
2018-02-15T00:52:51.250Z,51.13
2018-02-15T00:55:18.727Z,51.26
2018-02-15T00:57:46.229Z,51.78
2018-02-15T01:00:13.747Z,52.02
2018-02-15T01:02:41.251Z,52.45
2018-02-15T01:05:08.874Z,53.01
2018-02-15T01:07:36.392Z,53.23
2018-02-15T01:10:03.869Z,53.27
2018-02-15T01:12:31.375Z,53.18
2018-02-15T01:14:58.941Z,52.88
2018-02-15T01:17:26.425Z,52.57
2018-02-15T01:19:53.922Z,52.37
2018-02-15T01:22:21.589Z,52.11
2018-02-15T01:24:49.113Z,52.21
2018-02-15T01:27:16.603Z,52.19
2018-02-15T01:29:44.127Z,52.22
2018-02-15T01:32:11.604Z,51.93
2018-02-15T01:34:39.477Z,51.93
2018-02-15T01:37:07.035Z,51.75
2018-02-15T01:39:34.608Z,51.63
2018-02-15T01:42:02.181Z,51.56
2018-02-15T01:44:29.710Z,51.60
2018-02-15T01:46:57.275Z,51.46
2018-02-15T01:49:24.871Z,51.46
2018-02-15T01:51:52.430Z,51.28
2018-02-15T01:54:19.934Z,51.39
2018-02-15T01:56:47.451Z,51.56
2018-02-15T01:59:14.992Z,51.73
2018-02-15T02:01:42.495Z,51.48
2018-02-15T02:04:10.012Z,51.54
2018-02-15T02:06:37.496Z,52.08
2018-02-15T02:09:05.006Z,51.90
2018-02-15T02:11:32.497Z,51.15
2018-02-15T02:14:00.020Z,51.09
2018-02-15T02:16:27.501Z,50.66
2018-02-15T02:18:55.014Z,50.47
2018-02-15T02:21:22.499Z,50.48
2018-02-15T02:23:52.288Z,50.30
2018-02-15T02:26:19.806Z,50.17
2018-02-15T02:28:47.304Z,50.01
2018-02-15T02:31:14.860Z,49.73
2018-02-15T02:33:42.422Z,49.73
2018-02-15T02:36:10.011Z,49.75
2018-02-15T02:38:37.615Z,50.00
2018-02-15T02:41:05.249Z,49.28
2018-02-15T02:43:32.806Z,49.24
2018-02-15T02:46:00.327Z,48.94
2018-02-15T02:48:28.006Z,49.22
2018-02-15T02:50:55.505Z,49.29
2018-02-15T02:53:23.013Z,49.42
2018-02-15T02:55:50.495Z,49.56
2018-02-15T02:58:18.016Z,49.73
2018-02-15T03:03:19.311Z,50.43
2018-02-15T03:05:46.795Z,50.64
2018-02-15T03:08:14.396Z,50.82
2018-02-15T03:10:41.861Z,51.30
2018-02-15T03:13:09.380Z,51.54
2018-02-15T03:15:36.872Z,51.27
2018-02-15T03:18:04.358Z,51.53
2018-02-15T03:20:31.974Z,51.11
2018-02-15T03:22:59.468Z,50.77
2018-02-15T03:25:26.980Z,50.50
2018-02-15T03:27:54.458Z,50.23
2018-02-15T03:30:21.980Z,50.60
2018-02-15T03:32:49.591Z,50.87
2018-02-15T03:35:17.157Z,50.67
2018-02-15T03:37:44.686Z,50.61
2018-02-15T03:40:12.184Z,50.61
2018-02-15T03:42:39.700Z,50.45
2018-02-15T03:45:07.169Z,50.25
2018-02-15T03:47:34.676Z,49.92
2018-02-15T03:50:02.152Z,49.87
2018-02-15T03:52:29.685Z,49.74
2018-02-15T03:54:57.162Z,49.49
2018-02-15T03:57:24.638Z,49.60
2018-02-15T03:59:52.145Z,49.57
2018-02-15T04:02:19.661Z,50.15
2018-02-15T04:04:47.194Z,49.92
2018-02-15T04:07:14.815Z,50.02
2018-02-15T04:09:42.317Z,50.15
2018-02-15T04:12:09.794Z,49.95
2018-02-15T04:14:37.299Z,49.79
2018-02-15T04:17:04.869Z,49.58
2018-02-15T04:19:32.369Z,49.48
2018-02-15T04:21:59.894Z,49.22
2018-02-15T04:24:27.381Z,49.34
2018-02-15T04:26:54.905Z,49.36
2018-02-15T04:29:22.391Z,49.12
2018-02-15T04:31:49.888Z,48.99
2018-02-15T04:34:17.401Z,48.71
2018-02-15T04:36:44.903Z,49.09
2018-02-15T04:39:12.438Z,49.70
2018-02-15T04:41:39.918Z,50.78
2018-02-15T04:44:07.433Z,51.68
2018-02-15T04:46:34.914Z,52.48
2018-02-15T04:49:02.447Z,52.51
2018-02-15T04:51:29.933Z,52.46
2018-02-15T04:53:57.685Z,52.78
2018-02-15T04:56:25.186Z,52.76
2018-02-15T04:58:52.663Z,52.65
2018-02-15T05:01:20.186Z,52.53
2018-02-15T05:03:47.665Z,52.94
2018-02-15T05:06:15.179Z,52.91
2018-02-15T05:08:42.656Z,52.73
2018-02-15T05:11:10.181Z,52.84
2018-02-15T05:13:37.739Z,52.49
2018-02-15T05:16:05.244Z,52.47
2018-02-15T05:18:32.917Z,52.13
2018-02-15T05:21:00.566Z,52.08
2018-02-15T05:23:28.108Z,52.16
2018-02-15T05:25:55.744Z,52.18
2018-02-15T05:28:23.263Z,51.81
2018-02-15T05:30:50.754Z,51.51
2018-02-15T05:33:18.259Z,51.60
2018-02-15T05:35:45.827Z,51.08
2018-02-15T05:38:13.302Z,51.35
2018-02-15T05:40:40.806Z,51.27
2018-02-15T05:43:08.279Z,51.43
2018-02-15T05:45:35.788Z,51.51
2018-02-15T05:48:03.257Z,51.49
2018-02-15T05:50:31.503Z,51.35
2018-02-15T05:52:59.025Z,51.50
2018-02-15T05:55:26.533Z,51.13
2018-02-15T05:57:54.047Z,51.22
2018-02-15T06:00:21.581Z,51.15
2018-02-15T06:02:49.085Z,51.09
2018-02-15T06:05:16.558Z,51.28
2018-02-15T06:07:44.071Z,51.56
2018-02-15T06:10:11.559Z,51.36
2018-02-15T06:12:39.056Z,51.27
2018-02-15T06:15:06.579Z,51.04
2018-02-15T06:17:36.117Z,48.54
2018-02-15T06:20:03.682Z,49.34
2018-02-15T06:22:31.265Z,50.35
2018-02-15T06:24:58.833Z,50.73
2018-02-15T06:27:26.408Z,51.25
2018-02-15T06:29:53.954Z,51.26
2018-02-15T06:32:21.461Z,51.27
2018-02-15T06:34:48.971Z,51.00
2018-02-15T06:37:16.509Z,51.16
2018-02-15T06:39:43.978Z,49.80
2018-02-15T06:42:11.495Z,49.20
2018-02-15T06:44:38.970Z,48.43
2018-02-15T06:47:06.473Z,48.28
2018-02-15T06:49:33.957Z,47.21
2018-02-15T06:52:01.456Z,47.37
2018-02-15T06:54:28.928Z,46.18
2018-02-15T06:56:56.499Z,46.72
2018-02-15T06:59:24.020Z,46.48
2018-02-15T07:01:51.586Z,46.59
2018-02-15T07:04:19.217Z,46.33
2018-02-15T07:06:46.874Z,46.36
2018-02-15T07:09:14.451Z,46.33
2018-02-15T07:11:42.006Z,46.43
2018-02-15T07:14:09.654Z,46.62
2018-02-15T07:16:37.253Z,46.66
2018-02-15T07:19:04.744Z,46.41
2018-02-15T07:21:32.280Z,46.19
2018-02-15T07:23:59.780Z,46.13
2018-02-15T07:26:27.295Z,46.26
2018-02-15T07:28:54.804Z,46.24
2018-02-15T07:31:22.289Z,46.46
2018-02-15T07:33:49.771Z,46.50
2018-02-15T07:36:17.282Z,46.57
2018-02-15T07:38:44.782Z,46.73
2018-02-15T07:41:12.314Z,46.79
2018-02-15T07:43:39.826Z,46.93
2018-02-15T07:46:07.363Z,47.09
2018-02-15T07:48:34.861Z,46.64
2018-02-15T07:51:02.408Z,46.42
2018-02-15T07:53:29.914Z,47.22
2018-02-15T07:55:57.416Z,47.84
2018-02-15T07:58:24.943Z,48.55
2018-02-15T08:00:53.022Z,48.92
2018-02-15T08:03:20.532Z,49.21
2018-02-15T08:05:48.141Z,49.46
2018-02-15T08:08:15.733Z,49.33
2018-02-15T08:10:43.311Z,49.31
2018-02-15T08:13:10.860Z,49.56
2018-02-15T08:15:38.372Z,50.04
2018-02-15T08:18:05.863Z,49.79
2018-02-15T08:20:33.395Z,49.00
2018-02-15T08:23:00.872Z,48.34
2018-02-15T08:25:28.386Z,48.63
2018-02-15T08:27:55.874Z,48.98
2018-02-15T08:30:23.365Z,49.43
2018-02-15T08:32:50.928Z,49.65
2018-02-15T08:35:18.411Z,49.83
2018-02-15T08:37:45.955Z,50.15
2018-02-15T08:40:14.224Z,51.02
2018-02-15T08:42:41.882Z,51.21
2018-02-15T08:45:09.458Z,51.81
2018-02-15T08:47:37.084Z,53.20
2018-02-15T08:50:04.649Z,53.09
2018-02-15T08:52:32.189Z,53.18
2018-02-15T08:54:59.696Z,53.54
2018-02-15T08:57:27.212Z,53.80
2018-02-15T08:59:54.750Z,54.07
2018-02-15T09:02:22.250Z,54.62
2018-02-15T09:04:49.788Z,54.42
2018-02-15T09:07:17.289Z,55.53
2018-02-15T09:09:44.799Z,56.14
2018-02-15T09:12:12.307Z,56.07
2018-02-15T09:14:39.832Z,56.61
2018-02-15T09:17:08.197Z,56.39
2018-02-15T09:19:35.799Z,55.84
2018-02-15T09:22:03.307Z,56.18
2018-02-15T09:24:30.872Z,56.81
2018-02-15T09:26:58.382Z,57.21
2018-02-15T09:29:25.894Z,57.73
2018-02-15T09:31:53.399Z,58.51
2018-02-15T09:34:20.918Z,59.52
2018-02-15T09:36:48.490Z,60.48
2018-02-15T09:39:15.982Z,60.63
2018-02-15T09:41:43.492Z,61.35
2018-02-15T09:44:10.971Z,61.62
2018-02-15T09:46:38.477Z,61.18
2018-02-15T09:49:05.951Z,60.64
2018-02-15T09:51:33.477Z,61.36
2018-02-15T09:54:01.117Z,61.21
2018-02-15T09:56:28.610Z,61.27
2018-02-15T09:58:56.129Z,61.61
2018-02-15T10:01:23.613Z,62.03
2018-02-15T10:03:51.118Z,61.65
2018-02-15T10:06:18.615Z,61.77
2018-02-15T10:08:46.144Z,62.09
2018-02-15T10:11:13.633Z,62.16
2018-02-15T10:13:41.154Z,62.71
2018-02-15T10:16:08.635Z,62.41
2018-02-15T10:18:36.169Z,62.73
2018-02-15T10:21:03.686Z,63.07
2018-02-15T10:23:31.181Z,63.09
2018-02-15T10:25:58.820Z,63.07
2018-02-15T10:28:26.433Z,63.77
2018-02-15T10:30:53.974Z,63.77
2018-02-15T10:33:21.483Z,63.28
2018-02-15T10:35:49.009Z,62.77
2018-02-15T10:38:16.583Z,62.42
2018-02-15T10:40:44.106Z,61.99
2018-02-15T10:43:11.632Z,61.97
2018-02-15T10:45:39.142Z,62.17
2018-02-15T10:48:06.659Z,61.93
2018-02-15T10:50:34.168Z,61.68
2018-02-15T10:53:01.684Z,61.35
2018-02-15T10:55:29.177Z,61.43
2018-02-15T10:57:56.707Z,61.00
2018-02-15T11:00:29.797Z,61.38
2018-02-15T11:03:03.505Z,61.42
2018-02-15T11:05:32.287Z,61.82
2018-02-15T11:07:59.792Z,61.72
2018-02-15T11:10:27.336Z,62.34
2018-02-15T11:12:54.857Z,62.47
2018-02-15T11:15:22.375Z,62.39
2018-02-15T11:17:49.929Z,62.74
2018-02-15T11:20:17.572Z,63.46
2018-02-15T11:22:45.090Z,63.47
2018-02-15T11:25:12.735Z,64.04
2018-02-15T11:27:40.344Z,64.73
2018-02-15T11:30:07.877Z,65.41
2018-02-15T11:32:35.366Z,65.71
2018-02-15T11:35:03.759Z,65.43
2018-02-15T11:37:31.276Z,65.72
2018-02-15T11:39:59.500Z,65.63
2018-02-15T11:42:27.023Z,65.52
2018-02-15T11:44:54.549Z,66.53
2018-02-15T11:47:22.060Z,66.71
2018-02-15T11:49:49.551Z,66.21
2018-02-15T11:52:17.087Z,66.52
2018-02-15T11:54:44.567Z,66.70
2018-02-15T11:57:12.125Z,67.02
2018-02-15T11:59:39.613Z,66.89
2018-02-15T12:02:07.123Z,67.14
2018-02-15T12:04:34.680Z,66.92
2018-02-15T12:07:02.169Z,67.78
2018-02-15T12:09:29.686Z,68.38
2018-02-15T12:11:57.180Z,67.98
2018-02-15T12:14:25.309Z,68.31
2018-02-15T12:16:52.810Z,68.64
2018-02-15T12:19:20.338Z,69.15
2018-02-15T12:21:47.848Z,69.20
2018-02-15T12:24:15.337Z,69.54
2018-02-15T12:26:42.848Z,69.97
2018-02-15T12:29:10.344Z,70.21
2018-02-15T12:31:37.853Z,70.64
2018-02-15T12:34:05.352Z,70.21
2018-02-15T12:36:32.945Z,70.49
2018-02-15T12:39:00.516Z,70.26
2018-02-15T12:41:28.061Z,69.78
2018-02-15T12:43:55.742Z,69.99
2018-02-15T12:46:23.299Z,70.09
2018-02-15T12:48:50.824Z,70.05
2018-02-15T12:51:18.314Z,71.25
2018-02-15T12:53:45.860Z,71.53
2018-02-15T12:56:13.345Z,71.68
2018-02-15T12:58:40.909Z,71.61
2018-02-15T13:01:08.408Z,71.69
2018-02-15T13:03:35.911Z,71.37
2018-02-15T13:06:03.463Z,71.17
2018-02-15T13:08:30.990Z,71.16
2018-02-15T13:10:58.502Z,71.70
2018-02-15T13:13:31.821Z,71.71
2018-02-15T13:19:16.285Z,71.70
2018-02-15T13:21:43.828Z,71.42
2018-02-15T13:24:11.348Z,70.79
2018-02-15T13:26:38.846Z,71.09
2018-02-15T13:29:06.392Z,70.55
2018-02-15T13:31:33.874Z,70.86
2018-02-15T13:34:01.401Z,71.51
2018-02-15T13:36:28.938Z,71.15
2018-02-15T13:38:57.082Z,71.30
2018-02-15T13:41:24.606Z,71.34
2018-02-15T13:43:52.926Z,71.84
2018-02-15T13:46:20.418Z,71.17
2018-02-15T13:48:47.949Z,71.08
2018-02-15T13:51:15.448Z,71.20
2018-02-15T13:53:42.997Z,70.89
2018-02-15T13:56:10.619Z,70.77
2018-02-15T13:58:38.152Z,71.24
2018-02-15T14:01:05.677Z,71.00
2018-02-15T14:03:33.179Z,70.89
2018-02-15T14:06:00.703Z,70.51
2018-02-15T14:08:28.222Z,70.99
2018-02-15T14:10:55.781Z,70.67
2018-02-15T14:13:23.275Z,70.59
2018-02-15T14:15:50.812Z,70.69
2018-02-15T14:18:18.353Z,70.21
2018-02-15T14:20:46.334Z,70.19
2018-02-15T14:23:13.939Z,70.07
2018-02-15T14:25:41.497Z,70.13
2018-02-15T14:28:09.135Z,70.15
2018-02-15T14:30:36.755Z,70.36
2018-02-15T14:33:04.302Z,70.61
2018-02-15T14:35:31.940Z,71.01
2018-02-15T14:37:59.474Z,70.60
2018-02-15T14:40:27.018Z,70.48
2018-02-15T14:42:54.534Z,70.54
2018-02-15T14:45:22.067Z,70.07
2018-02-15T14:47:49.567Z,70.04
2018-02-15T14:50:17.103Z,70.24
2018-02-15T14:52:44.628Z,70.33
2018-02-15T14:55:12.125Z,70.12
2018-02-15T14:57:39.641Z,70.25
2018-02-15T15:00:07.149Z,69.94
2018-02-15T15:02:34.818Z,70.28
2018-02-15T15:05:02.333Z,70.22
2018-02-15T15:07:29.859Z,70.27
2018-02-15T15:09:57.377Z,70.20
2018-02-15T15:12:24.998Z,69.96
2018-02-15T15:14:53.265Z,69.81
2018-02-15T15:17:20.797Z,70.10
2018-02-15T15:19:48.317Z,70.16
2018-02-15T15:22:15.852Z,70.24
2018-02-15T15:24:43.383Z,70.36
2018-02-15T15:27:11.046Z,70.52
2018-02-15T15:29:38.650Z,70.12
2018-02-15T15:32:06.632Z,70.30
2018-02-15T15:34:34.194Z,70.59
2018-02-15T15:37:01.804Z,70.93
2018-02-15T15:39:29.316Z,71.43
2018-02-15T15:41:56.912Z,71.66
2018-02-15T15:44:24.717Z,71.58
2018-02-15T15:46:52.265Z,71.46
2018-02-15T15:49:19.771Z,71.41
2018-02-15T15:51:47.325Z,71.22
2018-02-15T15:54:14.842Z,71.13
2018-02-15T15:56:42.370Z,71.03
2018-02-15T15:59:09.899Z,71.03
2018-02-15T16:01:37.581Z,70.99
2018-02-15T16:04:05.133Z,70.88
2018-02-15T16:06:33.402Z,70.83
2018-02-15T16:09:01.556Z,70.76
2018-02-15T16:11:29.569Z,70.50
2018-02-15T16:13:57.079Z,70.39
2018-02-15T16:16:24.623Z,70.31
2018-02-15T16:18:52.282Z,70.54
2018-02-15T16:21:19.803Z,70.45
2018-02-15T16:23:47.330Z,70.62
2018-02-15T16:26:14.972Z,70.57
2018-02-15T16:31:16.295Z,70.83
2018-02-15T16:33:43.822Z,70.67
2018-02-15T16:36:11.387Z,70.60
2018-02-15T16:38:38.889Z,70.37
2018-02-15T16:41:06.580Z,70.69
2018-02-15T16:43:34.103Z,70.68
2018-02-15T16:46:01.604Z,70.62
2018-02-15T16:48:29.145Z,70.10
2018-02-15T16:50:56.670Z,69.94
2018-02-15T16:53:24.574Z,69.83
2018-02-15T16:55:52.706Z,69.83
2018-02-15T16:58:20.241Z,70.08
2018-02-15T17:00:47.823Z,70.19
2018-02-15T17:03:15.345Z,70.57
2018-02-15T17:05:42.845Z,71.02
2018-02-15T17:08:10.471Z,71.11
2018-02-15T17:10:38.030Z,70.94
2018-02-15T17:13:05.750Z,70.96
2018-02-15T17:15:33.414Z,71.14
2018-02-15T17:18:00.981Z,71.07
2018-02-15T17:20:28.703Z,71.15
2018-02-15T17:22:56.243Z,71.19
2018-02-15T17:25:23.799Z,71.07
2018-02-15T17:27:51.442Z,71.11
2018-02-15T17:30:18.966Z,71.09
2018-02-15T17:32:46.913Z,70.87
2018-02-15T17:35:14.493Z,71.00
2018-02-15T17:37:42.021Z,71.08
2018-02-15T17:40:09.514Z,70.75
2018-02-15T17:42:37.035Z,70.52
2018-02-15T17:45:04.571Z,70.52
2018-02-15T17:47:32.587Z,70.51
2018-02-15T17:50:00.183Z,70.55
2018-02-15T17:52:27.735Z,70.30
2018-02-15T17:54:55.311Z,70.30
2018-02-15T17:57:22.829Z,69.99
2018-02-15T17:59:50.345Z,70.07
2018-02-15T18:02:17.907Z,70.31
2018-02-15T18:04:45.481Z,70.48
2018-02-15T18:07:13.026Z,70.43
2018-02-15T18:09:40.543Z,70.12
2018-02-15T18:12:08.472Z,70.18
2018-02-15T18:14:36.077Z,70.37
2018-02-15T18:17:03.671Z,70.37
2018-02-15T18:19:31.263Z,70.45
2018-02-15T18:21:58.813Z,70.55
2018-02-15T18:24:26.583Z,70.71
2018-02-15T18:26:54.119Z,70.75
2018-02-15T18:29:21.691Z,70.59
2018-02-15T18:31:49.209Z,70.69
2018-02-15T18:34:16.753Z,71.17
2018-02-15T18:36:44.344Z,71.24
2018-02-15T18:39:11.905Z,71.40
2018-02-15T18:41:39.711Z,71.59
2018-02-15T18:44:07.245Z,71.74
2018-02-15T18:46:34.829Z,71.76
2018-02-15T18:49:02.390Z,71.97
2018-02-15T18:51:29.918Z,72.68
2018-02-15T18:53:57.493Z,72.99
2018-02-15T18:56:25.085Z,72.96
2018-02-15T18:58:52.697Z,73.37
2018-02-15T19:01:20.218Z,73.45
2018-02-15T19:03:47.744Z,72.96
2018-02-15T19:06:15.344Z,71.96
2018-02-15T19:08:42.901Z,71.33
2018-02-15T19:11:10.422Z,71.15
2018-02-15T19:13:37.958Z,70.92
2018-02-15T19:16:05.654Z,71.02
2018-02-15T19:18:33.174Z,71.02
2018-02-15T19:21:01.170Z,70.82
2018-02-15T19:23:28.711Z,70.87
2018-02-15T19:25:56.254Z,71.00
2018-02-15T19:28:23.822Z,70.73
2018-02-15T19:30:51.566Z,70.76
2018-02-15T19:33:19.093Z,70.96
2018-02-15T19:35:46.921Z,70.88
2018-02-15T19:38:14.425Z,70.78
2018-02-15T19:40:41.970Z,70.73
2018-02-15T19:43:09.495Z,70.48
2018-02-15T19:45:37.026Z,70.43
2018-02-15T19:48:04.804Z,70.74
2018-02-15T19:50:32.414Z,70.99
2018-02-15T19:52:59.987Z,71.19
2018-02-15T19:55:27.585Z,71.20
2018-02-15T19:57:55.497Z,70.97
2018-02-15T20:00:23.064Z,71.17
2018-02-15T20:02:50.600Z,71.00
2018-02-15T20:05:18.172Z,71.06
2018-02-15T20:07:45.815Z,71.17
2018-02-15T20:10:13.378Z,70.93
2018-02-15T20:12:40.897Z,70.97
2018-02-15T20:15:09.271Z,70.89
2018-02-15T20:17:36.883Z,71.14
2018-02-15T20:20:10.148Z,71.45
2018-02-15T20:22:37.640Z,71.31
2018-02-15T20:25:05.234Z,71.46
2018-02-15T20:30:37.107Z,71.14
2018-02-15T20:33:04.619Z,71.07
2018-02-15T20:35:32.154Z,71.01
2018-02-15T20:38:05.545Z,70.87
2018-02-15T20:40:36.706Z,71.08
2018-02-15T20:43:04.383Z,71.04
2018-02-15T20:45:31.909Z,70.86
2018-02-15T20:47:59.425Z,70.83
2018-02-15T20:50:32.393Z,70.86
2018-02-15T20:53:05.626Z,70.91
2018-02-15T20:55:38.608Z,70.87
2018-02-15T20:58:06.827Z,70.80
2018-02-15T21:00:34.528Z,70.74
2018-02-15T21:03:02.208Z,70.56
2018-02-15T21:05:29.778Z,70.47
2018-02-15T21:07:57.337Z,70.61
2018-02-15T21:10:24.843Z,70.78
2018-02-15T21:12:52.411Z,70.78
2018-02-15T21:15:19.981Z,70.82
2018-02-15T21:17:47.506Z,70.76
2018-02-15T21:20:15.039Z,70.60
2018-02-15T21:22:42.541Z,70.42
2018-02-15T21:25:10.057Z,70.58
2018-02-15T21:27:37.628Z,70.51
2018-02-15T21:30:05.340Z,70.37
2018-02-15T21:32:32.895Z,70.50
2018-02-15T21:35:00.415Z,70.54
2018-02-15T21:37:27.940Z,70.54
2018-02-15T21:39:55.492Z,70.45
2018-02-15T21:42:23.029Z,70.22
2018-02-15T21:44:50.530Z,70.59
2018-02-15T21:47:18.040Z,70.71
2018-02-15T21:49:45.553Z,70.83
2018-02-15T21:52:13.078Z,70.92
2018-02-15T21:54:40.611Z,70.89
2018-02-15T21:57:08.158Z,70.71
2018-02-15T21:59:35.662Z,70.56
2018-02-15T22:02:03.170Z,70.64
2018-02-15T22:04:30.704Z,70.57
2018-02-15T22:06:58.221Z,70.55
2018-02-15T22:09:25.792Z,70.63
2018-02-15T22:11:53.286Z,70.99
2018-02-15T22:14:20.986Z,70.70
2018-02-15T22:16:48.489Z,70.78
2018-02-15T22:19:16.006Z,70.95
2018-02-15T22:21:43.539Z,70.88
2018-02-15T22:24:11.046Z,71.02
2018-02-15T22:26:38.569Z,71.05
2018-02-15T22:29:06.065Z,70.87
2018-02-15T22:31:33.608Z,70.84
2018-02-15T22:34:01.128Z,70.63
2018-02-15T22:36:28.667Z,70.55
2018-02-15T22:39:00.461Z,70.40
2018-02-15T22:41:27.980Z,70.39
2018-02-15T22:43:55.553Z,70.41
2018-02-15T22:46:23.074Z,70.39
2018-02-15T22:48:50.564Z,70.70
2018-02-15T22:51:18.373Z,70.46
2018-02-15T22:53:45.869Z,70.33
2018-02-15T22:56:13.375Z,70.34
2018-02-15T22:58:40.901Z,70.61
2018-02-15T23:01:08.389Z,70.63
2018-02-15T23:03:35.951Z,71.00
2018-02-15T23:06:03.510Z,71.02
2018-02-15T23:08:31.016Z,71.02
2018-02-15T23:10:58.489Z,70.80
2018-02-15T23:13:26.003Z,70.81
2018-02-15T23:15:53.549Z,70.85
2018-02-15T23:18:21.168Z,70.68
2018-02-15T23:20:48.725Z,70.62
2018-02-15T23:23:17.016Z,70.57
2018-02-15T23:25:44.810Z,70.38
2018-02-15T23:28:12.337Z,70.78
2018-02-15T23:30:39.923Z,71.01
2018-02-15T23:33:07.493Z,71.04
2018-02-15T23:35:35.038Z,71.21
2018-02-15T23:38:02.538Z,71.27
2018-02-15T23:40:30.044Z,71.28
2018-02-15T23:42:57.565Z,71.09
2018-02-15T23:45:25.074Z,70.91
2018-02-15T23:47:52.587Z,70.53
2018-02-15T23:50:20.372Z,70.36
2018-02-15T23:52:47.862Z,70.30
2018-02-15T23:55:15.389Z,70.67
2018-02-15T23:57:42.879Z,71.26
